createdAt,value
2023-04-15T00:06:43.091Z,7
2023-04-15T00:35:35.669Z,7
2023-04-15T01:04:30.006Z,8
2023-04-15T01:33:13.398Z,10
2023-04-15T02:02:16.569Z,6
2023-04-15T02:31:16.608Z,6
2023-04-15T03:00:12.670Z,8
2023-04-15T03:29:02.275Z,6
2023-04-15T03:57:48.177Z,7
2023-04-15T04:26:48.620Z,5
2023-04-15T04:55:47.993Z,5
2023-04-15T05:25:06.589Z,6
2023-04-15T05:54:06.918Z,7
2023-04-15T06:23:09.032Z,10
2023-04-15T06:52:17.580Z,10
2023-04-15T07:21:36.997Z,11
2023-04-15T07:50:16.712Z,10
2023-04-15T08:19:49.620Z,8
2023-04-15T08:48:16.929Z,7
2023-04-15T09:17:28.816Z,6
2023-04-15T09:46:00.429Z,18
2023-04-15T10:15:15.691Z,4
2023-04-15T10:44:19.534Z,4
2023-04-15T11:13:13.585Z,7
2023-04-15T11:41:57.725Z,5
2023-04-15T12:11:10.245Z,4
2023-04-15T12:39:48.531Z,4
2023-04-15T13:09:03.386Z,4
2023-04-15T13:37:30.167Z,4
2023-04-15T14:06:28.772Z,6
2023-04-15T14:35:28.743Z,6
2023-04-15T15:04:28.528Z,6
2023-04-15T15:33:18.144Z,7
2023-04-15T16:02:18.694Z,7
2023-04-15T16:30:59.067Z,4
2023-04-15T16:59:59.247Z,10
2023-04-15T17:29:01.226Z,10
2023-04-15T17:58:04.656Z,10
2023-04-15T18:26:55.688Z,4
2023-04-15T18:55:49.718Z,4
2023-04-15T19:24:47.626Z,5
2023-04-15T19:53:43.386Z,7
2023-04-15T20:22:42.252Z,8
2023-04-15T20:51:42.773Z,11
2023-04-15T21:20:50.338Z,13
2023-04-15T21:49:59.361Z,14
2023-04-15T22:18:48.244Z,19
2023-04-15T22:47:55.653Z,23
2023-04-15T23:16:55.684Z,30
2023-04-15T23:45:41.601Z,31
